This is the latest recevied weather packets stored in our database for station/object NK7E-2. If no packets are shown the sender has not sent any weather packets the latest 10 day(s).
| Time | Temp. | Humidity | Pressure | Rain* | Wind** | Luminosity | Snow |
|---|---|---|---|---|---|---|---|
| 1777949116 | 15.56° C | 71% | 1021.7 hPa | 1.27 mm | - | - | - |
| 1777948516 | 15.56° C | 71% | 1021.1 hPa | 1.02 mm | - | - | - |
| 1777947917 | 15.56° C | 71% | 1021.4 hPa | 1.02 mm | - | - | - |
| 1777947316 | 15.56° C | 68% | 1021.5 hPa | 0.76 mm | - | - | - |
| 1777946716 | 16.67° C | 61% | 1021.6 hPa | 0.25 mm | - | - | - |
| 1777946116 | 17.22° C | 56% | 1021.3 hPa | 0 mm | - | - | - |
| 1777945516 | 18.33° C | 46% | 1021.2 hPa | 0 mm | - | - | - |
| 1777944916 | 18.33° C | 45% | 1020.5 hPa | 0 mm | - | - | - |
| 1777944316 | 18.33° C | 45% | 1020.3 hPa | 0 mm | - | - | - |
| 1777943716 | 16.67° C | 58% | 1020.3 hPa | 0 mm | - | - | - |
| 1777943116 | 16.67° C | 58% | 1020.4 hPa | 0 mm | - | - | - |
| 1777942516 | 17.22° C | 56% | 1020.8 hPa | 0 mm | - | - | - |
| 1777941916 | 18.33° C | 50% | 1020.9 hPa | 0 mm | - | - | - |
| 1777941316 | 19.44° C | 43% | 1021.3 hPa | 0 mm | - | - | - |
| 1777940716 | 20° C | 36% | 1021.2 hPa | 0 mm | - | - | - |
| 1777940116 | 20° C | 35% | 1021.1 hPa | 0 mm | - | - | - |
| 1777939516 | 20.56° C | 35% | 1021.2 hPa | 0 mm | - | - | - |
| 1777938916 | 20.56° C | 33% | 1021.4 hPa | 0 mm | - | - | - |
| 1777938316 | 21.67° C | 30% | 1021.9 hPa | 0 mm | - | - | - |
| 1777937716 | 22.78° C | 27% | 1021.8 hPa | 0 mm | - | - | - |
| 1777937116 | 23.33° C | 24% | 1021.8 hPa | 0 mm | - | - | - |
| 1777936516 | 23.33° C | 23% | 1021.1 hPa | 0 mm | - | - | - |
| 1777935916 | 23.33° C | 23% | 1021.1 hPa | 0 mm | - | - | - |
| 1777935316 | 23.89° C | 23% | 1021.2 hPa | 0 mm | - | - | - |
| 1777934716 | 24.44° C | 23% | 1021.1 hPa | 0 mm | - | - | - |
* Rain latest hour (hover to see other rain measurements)
** Current wind speed in m/s (hover to see current wind gust speed)